createdAt,value
2023-03-31T00:01:35.578Z,15.40
2023-03-31T00:04:06.081Z,15.80
2023-03-31T00:06:41.937Z,16.70
2023-03-31T00:09:16.017Z,16.30
2023-03-31T00:11:43.937Z,16.70
2023-03-31T00:14:12.882Z,17.10
2023-03-31T00:16:41.556Z,17.10
2023-03-31T00:19:13.616Z,15.90
2023-03-31T00:21:42.898Z,14.80
2023-03-31T00:24:12.111Z,13.30
2023-03-31T00:26:40.530Z,12.90
2023-03-31T00:29:10.826Z,14.20
2023-03-31T00:31:41.939Z,15.20
2023-03-31T00:34:09.956Z,13.60
2023-03-31T00:36:47.712Z,14.30
2023-03-31T00:39:19.060Z,14.90
2023-03-31T00:41:47.513Z,14.30
2023-03-31T00:44:24.668Z,14.30
2023-03-31T00:47:02.996Z,14.10
2023-03-31T00:49:33.999Z,13.60
2023-03-31T00:52:27.146Z,13.10
2023-03-31T00:54:59.170Z,11.80
2023-03-31T00:57:28.703Z,13.40
2023-03-31T00:59:59.311Z,11.80
2023-03-31T01:02:27.882Z,13.80
2023-03-31T01:04:59.357Z,13.00
2023-03-31T01:07:40.373Z,11.80
2023-03-31T01:10:10.298Z,12.30
2023-03-31T01:12:40.174Z,11.70
2023-03-31T01:15:09.095Z,11.20
2023-03-31T01:17:37.427Z,10.20
2023-03-31T01:20:24.446Z,10.00
2023-03-31T01:23:12.225Z,10.00
2023-03-31T01:26:02.421Z,10.90
2023-03-31T01:28:36.509Z,10.80
2023-03-31T01:31:30.787Z,10.20
2023-03-31T01:34:14.484Z,10.00
2023-03-31T01:37:10.049Z,10.90
2023-03-31T01:39:49.889Z,11.70
2023-03-31T01:42:35.949Z,11.90
2023-03-31T01:45:22.547Z,12.40
2023-03-31T01:48:08.223Z,12.20
2023-03-31T01:50:51.518Z,11.60
2023-03-31T01:54:06.644Z,12.60
2023-03-31T01:56:37.545Z,12.70
2023-03-31T01:59:11.530Z,13.70
2023-03-31T02:01:46.218Z,13.80
2023-03-31T02:04:20.938Z,14.80
2023-03-31T02:06:53.098Z,14.40
2023-03-31T02:09:27.711Z,13.10
2023-03-31T02:11:56.450Z,11.70
2023-03-31T02:14:27.152Z,12.10
2023-03-31T02:17:18.200Z,11.40
2023-03-31T02:19:49.666Z,11.60
2023-03-31T02:22:19.820Z,11.40
2023-03-31T02:24:50.379Z,9.50
2023-03-31T02:27:23.561Z,10.00
2023-03-31T02:29:51.812Z,10.00
2023-03-31T02:32:46.886Z,10.70
2023-03-31T02:35:17.989Z,11.30
2023-03-31T02:37:48.956Z,10.90
2023-03-31T02:40:20.822Z,12.20
2023-03-31T02:42:49.675Z,12.10
2023-03-31T02:45:42.168Z,12.10
2023-03-31T02:48:25.506Z,11.60
2023-03-31T02:51:11.352Z,12.20
2023-03-31T02:54:20.301Z,11.30
2023-03-31T02:57:26.449Z,12.20
2023-03-31T03:00:09.613Z,12.90
2023-03-31T03:03:19.471Z,12.70
2023-03-31T03:09:08.908Z,14.80
2023-03-31T03:11:43.752Z,13.70
2023-03-31T03:14:36.179Z,13.80
2023-03-31T03:17:11.121Z,13.60
2023-03-31T03:19:39.438Z,11.70
2023-03-31T03:22:09.353Z,12.00
2023-03-31T03:24:39.943Z,11.10
2023-03-31T03:27:08.871Z,10.20
2023-03-31T03:29:37.933Z,10.20
2023-03-31T03:32:06.300Z,10.40
2023-03-31T03:34:34.946Z,9.80
2023-03-31T03:37:05.694Z,9.70
2023-03-31T03:39:34.402Z,9.10
2023-03-31T03:42:03.321Z,9.50
2023-03-31T03:44:31.362Z,8.70
2023-03-31T03:46:59.636Z,9.80
2023-03-31T03:49:29.793Z,9.10
2023-03-31T03:51:57.929Z,9.80
2023-03-31T03:54:26.535Z,8.60
2023-03-31T03:56:55.052Z,8.60
2023-03-31T03:59:23.860Z,8.90
2023-03-31T04:01:54.093Z,10.60
2023-03-31T04:04:23.326Z,9.80
2023-03-31T04:06:51.569Z,10.70
2023-03-31T04:09:22.197Z,12.80
2023-03-31T04:11:54.095Z,14.10
2023-03-31T04:14:22.680Z,15.50
2023-03-31T04:16:51.473Z,18.30
2023-03-31T04:19:21.981Z,17.50
2023-03-31T04:21:58.772Z,16.90
2023-03-31T04:24:30.984Z,17.60
2023-03-31T04:27:02.299Z,16.10
2023-03-31T04:29:39.392Z,15.40
2023-03-31T04:32:07.666Z,13.80
2023-03-31T04:34:36.223Z,14.80
2023-03-31T04:37:07.318Z,13.50
2023-03-31T04:39:35.593Z,12.30
2023-03-31T04:42:05.804Z,12.20
2023-03-31T04:44:37.409Z,10.90
2023-03-31T04:47:07.166Z,10.30
2023-03-31T04:49:36.874Z,10.30
2023-03-31T04:52:05.730Z,10.20
2023-03-31T04:54:34.581Z,9.50
2023-03-31T04:57:03.026Z,9.10
2023-03-31T04:59:33.776Z,10.10
2023-03-31T05:02:02.548Z,10.50
2023-03-31T05:04:31.215Z,10.40
2023-03-31T05:06:59.846Z,10.60
2023-03-31T05:09:27.809Z,9.70
2023-03-31T05:11:57.598Z,9.80
2023-03-31T05:14:25.999Z,10.50
2023-03-31T05:16:58.224Z,9.90
2023-03-31T05:19:26.296Z,10.30
2023-03-31T05:21:54.510Z,10.30
2023-03-31T05:24:22.494Z,9.50
2023-03-31T05:26:53.036Z,9.10
2023-03-31T05:29:21.582Z,9.30
2023-03-31T05:31:49.710Z,8.60
2023-03-31T05:34:17.786Z,9.50
2023-03-31T05:36:48.188Z,9.70
2023-03-31T05:39:16.540Z,9.10
2023-03-31T05:41:44.540Z,9.50
2023-03-31T05:44:12.681Z,9.30
2023-03-31T05:46:41.558Z,10.30
2023-03-31T05:49:11.987Z,9.70
2023-03-31T05:51:40.344Z,9.50
2023-03-31T05:54:09.006Z,10.10
2023-03-31T05:56:37.475Z,9.10
2023-03-31T05:59:06.493Z,8.80
2023-03-31T06:01:37.375Z,9.00
2023-03-31T06:04:06.467Z,8.90
2023-03-31T06:06:37.853Z,8.80
2023-03-31T06:09:08.063Z,8.80
2023-03-31T06:11:36.506Z,10.20
2023-03-31T06:14:05.312Z,8.90
2023-03-31T06:16:35.481Z,9.60
2023-03-31T06:19:03.367Z,8.70
2023-03-31T06:21:31.618Z,9.10
2023-03-31T06:24:00.742Z,8.60
2023-03-31T06:26:29.306Z,9.20
2023-03-31T06:28:57.344Z,9.30
2023-03-31T06:31:26.257Z,10.90
2023-03-31T06:33:54.359Z,10.80
2023-03-31T06:36:22.709Z,10.30
2023-03-31T06:38:51.344Z,9.90
2023-03-31T06:41:21.296Z,8.40
2023-03-31T06:43:49.735Z,9.10
2023-03-31T06:46:18.224Z,9.90
2023-03-31T06:48:46.653Z,10.60
2023-03-31T06:51:15.272Z,9.80
2023-03-31T06:53:44.046Z,10.00
2023-03-31T06:56:12.065Z,9.40
2023-03-31T06:58:40.708Z,9.80
2023-03-31T07:01:09.422Z,9.70
2023-03-31T07:03:44.953Z,9.30
2023-03-31T07:06:13.283Z,8.90
2023-03-31T07:08:41.382Z,8.70
2023-03-31T07:11:09.747Z,8.00
2023-03-31T07:13:44.346Z,7.80
2023-03-31T07:16:14.339Z,7.60
2023-03-31T07:18:43.441Z,9.30
2023-03-31T07:21:12.946Z,9.00
2023-03-31T07:23:41.292Z,9.30
2023-03-31T07:26:09.566Z,7.40
2023-03-31T07:28:39.292Z,7.60
2023-03-31T07:31:14.255Z,7.70
2023-03-31T07:33:42.545Z,8.00
2023-03-31T07:36:13.917Z,9.20
2023-03-31T07:38:46.968Z,8.80
2023-03-31T07:41:17.620Z,8.50
2023-03-31T07:43:46.044Z,8.80
2023-03-31T07:46:32.656Z,10.50
2023-03-31T07:49:03.444Z,10.10
2023-03-31T07:51:31.859Z,10.20
2023-03-31T07:53:59.862Z,9.50
2023-03-31T07:56:34.676Z,9.00
2023-03-31T07:59:02.632Z,8.50
2023-03-31T08:01:30.704Z,9.00
2023-03-31T08:03:59.370Z,9.20
2023-03-31T08:06:31.132Z,10.60
2023-03-31T08:08:59.438Z,11.50
2023-03-31T08:11:27.702Z,9.50
2023-03-31T08:13:58.384Z,8.40
2023-03-31T08:16:26.463Z,8.90
2023-03-31T08:18:58.968Z,9.30
2023-03-31T08:21:31.355Z,9.10
2023-03-31T08:24:01.764Z,8.70
2023-03-31T08:26:32.990Z,7.90
2023-03-31T08:29:00.930Z,9.00
2023-03-31T08:31:30.656Z,9.40
2023-03-31T08:33:58.935Z,9.30
2023-03-31T08:36:27.458Z,9.40
2023-03-31T08:38:55.713Z,10.70
2023-03-31T08:41:26.844Z,9.70
2023-03-31T08:43:56.194Z,9.50
2023-03-31T08:46:24.788Z,10.10
2023-03-31T08:48:55.080Z,9.10
2023-03-31T08:51:31.231Z,10.20
2023-03-31T08:54:15.796Z,8.40
2023-03-31T08:56:45.624Z,8.40
2023-03-31T08:59:27.628Z,9.50
2023-03-31T09:02:21.357Z,9.50
2023-03-31T09:05:13.314Z,9.80
2023-03-31T09:08:05.986Z,10.80
2023-03-31T09:10:53.338Z,9.30
2023-03-31T09:13:48.941Z,9.20
2023-03-31T09:16:21.834Z,9.40
2023-03-31T09:18:51.212Z,9.10
2023-03-31T09:21:35.352Z,9.60
2023-03-31T09:24:17.351Z,10.40
2023-03-31T09:26:53.105Z,8.10
2023-03-31T09:29:43.076Z,8.10
2023-03-31T09:32:38.830Z,10.00
2023-03-31T09:35:21.988Z,8.70
2023-03-31T09:37:52.425Z,8.20
2023-03-31T09:40:24.358Z,8.20
2023-03-31T09:43:01.225Z,8.40
2023-03-31T09:45:30.825Z,8.50
2023-03-31T09:48:07.280Z,8.80
2023-03-31T09:50:40.265Z,9.20
2023-03-31T09:53:08.443Z,8.50
2023-03-31T09:55:47.730Z,8.50
2023-03-31T09:58:17.482Z,9.60
2023-03-31T10:01:06.556Z,8.70
2023-03-31T10:03:53.774Z,8.40
2023-03-31T10:06:26.646Z,8.60
2023-03-31T10:08:59.702Z,9.20
2023-03-31T10:11:27.729Z,10.10
2023-03-31T10:14:02.222Z,8.60
2023-03-31T10:16:32.318Z,10.00
2023-03-31T10:19:16.080Z,9.20
2023-03-31T10:21:51.724Z,9.00
2023-03-31T10:24:19.937Z,9.20
2023-03-31T10:26:52.650Z,8.60
2023-03-31T10:29:33.868Z,7.90
2023-03-31T10:32:09.228Z,7.70
2023-03-31T10:34:39.576Z,7.90
2023-03-31T10:37:10.039Z,7.70
2023-03-31T10:39:39.268Z,7.50
2023-03-31T10:42:07.282Z,7.10
2023-03-31T10:44:39.328Z,7.80
2023-03-31T10:47:18.230Z,8.60
2023-03-31T10:49:48.839Z,8.20
2023-03-31T10:52:22.897Z,7.60
2023-03-31T10:54:58.850Z,7.90
2023-03-31T10:57:43.127Z,8.30
2023-03-31T11:00:15.289Z,8.30
2023-03-31T11:02:53.242Z,7.60
2023-03-31T11:05:44.577Z,8.20
2023-03-31T11:08:20.186Z,8.30
2023-03-31T11:11:00.823Z,8.20
2023-03-31T11:13:51.228Z,8.80
2023-03-31T11:16:32.534Z,8.30
2023-03-31T11:19:08.247Z,8.80
2023-03-31T11:21:43.184Z,9.00
2023-03-31T11:24:34.745Z,8.10
2023-03-31T11:27:32.041Z,9.50
2023-03-31T11:30:27.136Z,6.40
2023-03-31T11:33:33.457Z,7.00
2023-03-31T11:36:19.073Z,5.90
2023-03-31T11:39:02.172Z,6.10
2023-03-31T11:41:43.853Z,6.90
2023-03-31T11:44:13.048Z,6.60
2023-03-31T11:47:02.327Z,5.90
2023-03-31T11:49:32.425Z,6.70
2023-03-31T11:52:06.599Z,7.10
2023-03-31T11:54:37.679Z,5.90
2023-03-31T11:57:14.330Z,6.30
2023-03-31T11:59:43.109Z,6.50
2023-03-31T12:02:17.916Z,6.30
2023-03-31T12:04:49.877Z,6.80
2023-03-31T12:07:24.173Z,6.80
2023-03-31T12:10:12.307Z,6.70
2023-03-31T12:12:46.093Z,6.50
2023-03-31T12:15:35.694Z,6.50
2023-03-31T12:18:14.421Z,7.10
2023-03-31T12:20:47.814Z,6.30
2023-03-31T12:23:19.830Z,6.30
2023-03-31T12:26:02.915Z,6.60
2023-03-31T12:28:32.841Z,6.40
2023-03-31T12:31:01.527Z,6.20
2023-03-31T12:33:32.348Z,5.90
2023-03-31T12:36:25.934Z,5.70
2023-03-31T12:39:22.040Z,5.80
2023-03-31T12:42:20.106Z,6.00
2023-03-31T12:45:01.602Z,5.90
2023-03-31T12:48:00.079Z,6.10
2023-03-31T12:51:06.357Z,5.90
2023-03-31T12:53:40.256Z,6.40
2023-03-31T12:56:08.640Z,5.60
2023-03-31T12:58:40.172Z,6.40
2023-03-31T13:01:24.455Z,6.30
2023-03-31T13:04:22.496Z,5.20
2023-03-31T13:06:55.391Z,5.50
2023-03-31T13:09:48.147Z,6.20
2023-03-31T13:12:18.796Z,6.20
2023-03-31T13:14:48.655Z,5.50
2023-03-31T13:17:31.709Z,6.10
2023-03-31T13:20:16.688Z,5.90
2023-03-31T13:22:48.281Z,5.70
2023-03-31T13:25:38.720Z,5.50
2023-03-31T13:28:22.266Z,5.40
2023-03-31T13:31:02.271Z,5.50
2023-03-31T13:33:34.715Z,6.00
2023-03-31T13:36:15.150Z,5.90
2023-03-31T13:39:06.907Z,5.90
2023-03-31T13:42:01.814Z,5.70
2023-03-31T13:44:43.856Z,6.00
2023-03-31T13:47:33.401Z,6.10
2023-03-31T13:50:24.809Z,6.40
2023-03-31T13:53:06.630Z,6.10
2023-03-31T13:55:50.322Z,6.40
2023-03-31T13:58:40.441Z,5.40
2023-03-31T14:01:11.473Z,4.70
2023-03-31T14:04:14.444Z,4.60
2023-03-31T14:07:08.469Z,5.00
2023-03-31T14:09:38.424Z,4.80
2023-03-31T14:12:42.060Z,5.30
2023-03-31T14:15:21.280Z,4.80
2023-03-31T14:17:49.832Z,5.50
2023-03-31T14:20:57.785Z,5.70
2023-03-31T14:23:47.994Z,5.20
2023-03-31T14:26:37.886Z,5.30
2023-03-31T14:29:35.777Z,5.00
2023-03-31T14:32:11.796Z,5.70
2023-03-31T14:34:43.236Z,6.30
2023-03-31T14:37:13.888Z,6.00
2023-03-31T14:39:43.143Z,6.10
2023-03-31T14:42:16.002Z,6.40
2023-03-31T14:44:47.098Z,6.10
2023-03-31T14:47:23.805Z,6.20
2023-03-31T14:50:02.315Z,6.50
2023-03-31T14:52:33.537Z,6.20
2023-03-31T14:55:01.629Z,6.60
2023-03-31T14:57:35.954Z,6.30
2023-03-31T15:00:08.332Z,6.70
2023-03-31T15:02:40.636Z,7.10
2023-03-31T15:05:10.929Z,6.90
2023-03-31T15:07:41.148Z,7.90
2023-03-31T15:10:13.120Z,7.70
2023-03-31T15:12:48.767Z,7.50
2023-03-31T15:15:17.213Z,8.20
2023-03-31T15:17:47.091Z,8.20
2023-03-31T15:20:28.016Z,9.00
2023-03-31T15:22:56.839Z,8.50
2023-03-31T15:25:27.359Z,9.00
2023-03-31T15:28:02.361Z,9.20
2023-03-31T15:30:37.676Z,9.40
2023-03-31T15:33:18.359Z,9.00
2023-03-31T15:35:47.818Z,8.80
2023-03-31T15:38:18.771Z,9.40
2023-03-31T15:40:51.269Z,8.80
2023-03-31T15:43:50.931Z,10.00
2023-03-31T15:46:39.150Z,9.00
2023-03-31T15:49:20.319Z,9.60
2023-03-31T15:51:48.699Z,9.50
2023-03-31T15:54:41.762Z,9.60
2023-03-31T15:57:09.950Z,9.40
2023-03-31T16:02:44.157Z,9.50
2023-03-31T16:05:43.722Z,10.10
2023-03-31T16:08:29.287Z,10.00
2023-03-31T16:11:03.567Z,9.40
2023-03-31T16:13:34.075Z,8.60
2023-03-31T16:16:02.638Z,9.80
2023-03-31T16:18:34.160Z,10.20
2023-03-31T16:21:04.036Z,9.90
2023-03-31T16:23:34.020Z,10.60
2023-03-31T16:26:02.032Z,10.70
2023-03-31T16:28:32.986Z,10.90
2023-03-31T16:31:05.356Z,11.70
2023-03-31T16:33:52.947Z,10.90
2023-03-31T16:36:21.330Z,10.80
2023-03-31T16:38:53.148Z,10.70
2023-03-31T16:41:23.417Z,10.40
2023-03-31T16:43:52.637Z,10.80
2023-03-31T16:46:24.466Z,11.10
2023-03-31T16:48:52.964Z,11.00
2023-03-31T16:51:21.387Z,11.00
2023-03-31T16:53:49.508Z,10.40
2023-03-31T16:56:17.563Z,11.40
2023-03-31T16:58:45.807Z,10.70
2023-03-31T17:01:14.618Z,10.50
2023-03-31T17:03:45.294Z,10.90
2023-03-31T17:06:13.810Z,11.10
2023-03-31T17:08:44.109Z,10.00
2023-03-31T17:11:14.272Z,10.30
2023-03-31T17:13:44.762Z,10.60
2023-03-31T17:16:22.095Z,10.30
2023-03-31T17:18:57.112Z,11.20
2023-03-31T17:21:26.255Z,11.60
2023-03-31T17:23:57.038Z,11.30
2023-03-31T17:26:29.329Z,11.80
2023-03-31T17:28:57.312Z,11.80
2023-03-31T17:31:27.837Z,12.20
2023-03-31T17:33:57.060Z,11.80
2023-03-31T17:36:30.467Z,12.90
2023-03-31T17:39:00.247Z,12.00
2023-03-31T17:41:32.000Z,12.70
2023-03-31T17:44:01.337Z,13.50
2023-03-31T17:46:30.017Z,12.80
2023-03-31T17:48:59.748Z,12.30
2023-03-31T17:51:28.813Z,13.40
2023-03-31T17:53:57.637Z,13.30
2023-03-31T17:56:27.561Z,12.80
2023-03-31T17:58:57.501Z,13.70
2023-03-31T18:01:25.888Z,12.80
2023-03-31T18:03:57.942Z,13.10
2023-03-31T18:06:27.966Z,13.60
2023-03-31T18:08:57.568Z,14.30
2023-03-31T18:11:26.904Z,13.70
2023-03-31T18:14:02.026Z,14.20
2023-03-31T18:16:31.582Z,14.60
2023-03-31T18:18:59.737Z,15.60
2023-03-31T18:21:35.327Z,15.90
2023-03-31T18:24:03.835Z,15.30
2023-03-31T18:26:31.834Z,15.90
2023-03-31T18:29:04.393Z,14.80
2023-03-31T18:31:32.811Z,14.40
2023-03-31T18:34:01.066Z,15.60
2023-03-31T18:36:29.873Z,15.20
2023-03-31T18:39:00.566Z,16.00
2023-03-31T18:41:28.686Z,15.10
2023-03-31T18:43:56.797Z,15.30
2023-03-31T18:46:24.875Z,16.10
2023-03-31T18:48:53.474Z,17.30
2023-03-31T18:51:21.500Z,16.30
2023-03-31T18:53:52.296Z,16.60
2023-03-31T18:56:20.504Z,16.30
2023-03-31T18:58:51.844Z,15.90
2023-03-31T19:01:22.038Z,15.40
2023-03-31T19:03:51.089Z,16.60
2023-03-31T19:06:22.793Z,16.70
2023-03-31T19:08:54.667Z,16.80
2023-03-31T19:11:23.979Z,17.70
2023-03-31T19:13:54.472Z,17.70
2023-03-31T19:16:44.378Z,17.60
2023-03-31T19:19:12.821Z,17.80
2023-03-31T19:21:42.868Z,18.70
2023-03-31T19:24:12.648Z,17.50
2023-03-31T19:26:42.113Z,16.60
2023-03-31T19:29:10.134Z,19.00
2023-03-31T19:31:43.804Z,17.80
2023-03-31T19:36:46.561Z,18.20
2023-03-31T19:39:15.144Z,18.30
2023-03-31T19:41:45.866Z,20.00
2023-03-31T19:44:16.084Z,18.60
2023-03-31T19:46:44.369Z,18.60
2023-03-31T19:49:13.074Z,18.20
2023-03-31T19:51:41.727Z,18.00
2023-03-31T19:54:11.427Z,18.90
2023-03-31T19:56:39.735Z,19.10
2023-03-31T19:59:09.849Z,18.90
2023-03-31T20:01:38.760Z,18.10
2023-03-31T20:04:10.806Z,20.00
2023-03-31T20:06:39.302Z,19.00
2023-03-31T20:09:09.843Z,19.30
2023-03-31T20:11:38.872Z,18.60
2023-03-31T20:14:07.595Z,18.20
2023-03-31T20:16:35.844Z,18.50
2023-03-31T20:19:05.378Z,18.10
2023-03-31T20:21:35.626Z,18.30
2023-03-31T20:24:08.992Z,18.00
2023-03-31T20:26:38.683Z,18.40
2023-03-31T20:29:06.945Z,18.50
2023-03-31T20:31:39.228Z,17.10
2023-03-31T20:34:12.389Z,17.50
2023-03-31T20:36:41.951Z,18.10
2023-03-31T20:39:10.261Z,18.30
2023-03-31T20:41:38.667Z,18.20
2023-03-31T20:44:08.224Z,19.10
2023-03-31T20:46:37.346Z,18.40
2023-03-31T20:49:07.329Z,17.80
2023-03-31T20:51:37.601Z,18.90
2023-03-31T20:54:09.359Z,17.10
2023-03-31T20:56:39.574Z,17.80
2023-03-31T20:59:11.536Z,19.20
2023-03-31T21:01:40.036Z,18.00
2023-03-31T21:04:11.421Z,18.60
2023-03-31T21:06:41.982Z,18.90
2023-03-31T21:09:11.726Z,18.10
2023-03-31T21:11:42.767Z,18.70
2023-03-31T21:14:13.367Z,18.60
2023-03-31T21:16:43.580Z,17.70
2023-03-31T21:19:16.199Z,18.40
2023-03-31T21:21:44.862Z,16.90
2023-03-31T21:24:15.194Z,17.60
2023-03-31T21:26:46.218Z,18.30
2023-03-31T21:29:15.615Z,17.60
2023-03-31T21:31:45.033Z,17.40
2023-03-31T21:34:14.203Z,17.40
2023-03-31T21:36:42.316Z,17.40
2023-03-31T21:39:10.684Z,17.70
2023-03-31T21:41:40.564Z,18.00
2023-03-31T21:44:10.038Z,17.20
2023-03-31T21:46:38.695Z,16.00
2023-03-31T21:49:07.326Z,17.60
2023-03-31T21:51:35.756Z,17.20
2023-03-31T21:54:04.022Z,17.10
2023-03-31T21:56:32.752Z,18.30
2023-03-31T21:59:04.410Z,18.10
2023-03-31T22:01:33.024Z,18.40
2023-03-31T22:04:04.981Z,17.10
2023-03-31T22:06:34.826Z,17.80
2023-03-31T22:09:06.154Z,18.40
2023-03-31T22:11:34.171Z,17.70
2023-03-31T22:14:06.898Z,19.80
2023-03-31T22:16:38.994Z,20.70
2023-03-31T22:19:07.722Z,19.70
2023-03-31T22:21:45.283Z,20.50
2023-03-31T22:24:14.162Z,19.70
2023-03-31T22:26:43.833Z,20.70
2023-03-31T22:29:15.155Z,20.70
2023-03-31T22:31:45.612Z,21.00
2023-03-31T22:34:16.030Z,21.60
2023-03-31T22:36:44.563Z,20.70
2023-03-31T22:39:16.520Z,22.00
2023-03-31T22:41:44.748Z,23.10
2023-03-31T22:44:14.931Z,21.30
2023-03-31T22:46:46.448Z,22.00
2023-03-31T22:49:15.105Z,23.40
2023-03-31T22:51:45.323Z,22.90
2023-03-31T22:54:14.679Z,23.60
2023-03-31T22:56:44.052Z,22.90
2023-03-31T22:59:12.084Z,23.40
2023-03-31T23:01:40.759Z,21.60
2023-03-31T23:04:09.092Z,23.60
2023-03-31T23:06:38.950Z,24.50
2023-03-31T23:09:07.247Z,22.20
2023-03-31T23:11:35.282Z,24.20
2023-03-31T23:14:05.576Z,23.60
2023-03-31T23:16:36.874Z,21.60
2023-03-31T23:19:05.652Z,23.90
2023-03-31T23:21:33.912Z,24.10
2023-03-31T23:24:02.836Z,23.00
2023-03-31T23:26:32.032Z,23.00
2023-03-31T23:29:00.555Z,22.80
2023-03-31T23:31:30.976Z,22.50
2023-03-31T23:33:59.293Z,22.60
2023-03-31T23:36:28.003Z,22.60
2023-03-31T23:39:00.705Z,23.00
2023-03-31T23:41:29.980Z,22.70
2023-03-31T23:43:58.015Z,21.60
2023-03-31T23:46:26.897Z,20.90
2023-03-31T23:48:55.890Z,21.80
2023-03-31T23:51:24.320Z,20.70
2023-03-31T23:53:52.894Z,20.50
2023-03-31T23:56:27.599Z,20.30
2023-03-31T23:58:56.330Z,20.40
